createdAt,value
2023-05-19T00:00:16.249Z,4.12
2023-05-19T00:06:21.451Z,4.12
2023-05-19T00:12:24.935Z,4.12
2023-05-19T00:16:27.875Z,4.12
2023-05-19T00:22:31.808Z,4.12
2023-05-19T00:26:35.016Z,4.12
2023-05-19T00:28:36.690Z,4.12
2023-05-19T00:32:40.269Z,4.12
2023-05-19T00:36:43.499Z,4.12
2023-05-19T00:38:44.545Z,4.12
2023-05-19T00:42:47.459Z,4.12
2023-05-19T00:46:51.415Z,4.11
2023-05-19T00:48:53.001Z,4.12
2023-05-19T00:52:55.900Z,4.11
2023-05-19T00:54:57.242Z,4.11
2023-05-19T00:59:00.353Z,4.11
2023-05-19T01:05:04.472Z,4.11
2023-05-19T01:11:09.070Z,4.11
2023-05-19T01:15:11.445Z,4.11
2023-05-19T01:21:16.177Z,4.11
2023-05-19T01:25:19.130Z,4.11
2023-05-19T01:27:20.758Z,4.11
2023-05-19T01:31:23.783Z,4.11
2023-05-19T01:35:27.173Z,4.11
2023-05-19T01:37:28.733Z,4.1
2023-05-19T01:41:30.979Z,4.11
2023-05-19T01:47:35.523Z,4.1
2023-05-19T01:53:40.880Z,4.1
2023-05-19T01:57:43.358Z,4.1
2023-05-19T02:03:47.111Z,4.1
2023-05-19T02:07:50.153Z,4.1
2023-05-19T02:09:51.346Z,4.1
2023-05-19T02:13:55.011Z,4.1
2023-05-19T02:17:58.183Z,4.1
2023-05-19T02:19:59.120Z,4.1
2023-05-19T02:24:02.921Z,4.1
2023-05-19T02:30:06.933Z,4.1
2023-05-19T02:36:11.146Z,4.1
2023-05-19T02:40:14.069Z,4.1
2023-05-19T02:46:18.853Z,4.1
2023-05-19T02:50:22.060Z,4.1
2023-05-19T02:52:23.964Z,4.1
2023-05-19T02:56:26.398Z,4.09
2023-05-19T03:00:29.420Z,4.09
2023-05-19T03:02:30.688Z,4.09
2023-05-19T03:06:33.580Z,4.09
2023-05-19T03:12:38.931Z,4.09
2023-05-19T03:18:43.071Z,4.09
2023-05-19T03:21:28.856Z,4.09
2023-05-19T03:23:30.516Z,4.09
2023-05-19T03:27:33.528Z,4.09
2023-05-19T03:29:35.258Z,4.09
2023-05-19T03:33:38.765Z,4.08
2023-05-19T03:37:41.316Z,4.09
2023-05-19T03:39:43.111Z,4.09
2023-05-19T03:43:46.263Z,4.09
2023-05-19T03:49:50.958Z,4.08
2023-05-19T03:55:55.305Z,4.08
2023-05-19T03:59:58.641Z,4.08
2023-05-19T04:06:03.319Z,4.08
2023-05-19T04:08:04.963Z,4.08
2023-05-19T04:10:06.492Z,4.08
2023-05-19T04:12:07.981Z,4.08
2023-05-19T04:16:10.891Z,4.08
2023-05-19T04:20:13.308Z,4.08
2023-05-19T04:22:14.831Z,4.08
2023-05-19T04:26:17.617Z,4.08
2023-05-19T04:30:19.984Z,4.08
2023-05-19T04:32:21.440Z,4.08
2023-05-19T04:36:25.008Z,4.08
2023-05-19T04:38:36.499Z,4.08
2023-05-19T04:40:28.272Z,4.08
2023-05-19T04:42:29.452Z,4.08
2023-05-19T04:48:33.137Z,4.08
2023-05-19T04:54:37.207Z,4.08
2023-05-19T04:58:41.878Z,4.08
2023-05-19T05:04:44.644Z,4.08
2023-05-19T05:08:47.396Z,4.09
2023-05-19T05:10:48.840Z,4.08
2023-05-19T05:14:51.450Z,4.09
2023-05-19T05:18:54.341Z,4.09
2023-05-19T05:20:55.715Z,4.09
2023-05-19T05:24:57.920Z,4.1
2023-05-19T05:31:02.565Z,4.1
2023-05-19T05:37:06.914Z,4.11
2023-05-19T05:41:09.794Z,4.12
2023-05-19T05:47:14.402Z,4.13
2023-05-19T05:51:16.753Z,4.13
2023-05-19T05:53:18.158Z,4.14
2023-05-19T05:57:21.999Z,4.15
2023-05-19T06:01:25.741Z,4.16
2023-05-19T06:03:27.333Z,4.16
2023-05-19T06:07:29.958Z,4.16
2023-05-19T06:13:33.432Z,4.17
2023-05-19T06:19:36.614Z,4.17
2023-05-19T06:23:38.660Z,4.18
2023-05-19T06:25:39.955Z,4.18
2023-05-19T06:29:42.845Z,4.19
2023-05-19T06:35:47.322Z,4.19
2023-05-19T06:39:49.253Z,4.19
2023-05-19T06:45:54.408Z,4.19
2023-05-19T06:49:56.967Z,4.2
2023-05-19T06:51:58.043Z,4.19
2023-05-19T06:56:00.643Z,4.2
2023-05-19T07:00:02.736Z,4.2
2023-05-19T07:02:04.186Z,4.19
2023-05-19T07:06:08.252Z,4.2
2023-05-19T07:08:08.625Z,4.2
2023-05-19T07:10:10.008Z,4.2
2023-05-19T07:12:11.404Z,4.2
2023-05-19T07:18:15.003Z,4.2
2023-05-19T07:22:18.651Z,4.2
2023-05-19T07:28:22.762Z,4.2
2023-05-19T07:32:26.042Z,4.19
2023-05-19T07:34:27.290Z,4.19
2023-05-19T07:38:29.726Z,4.19
2023-05-19T07:42:32.644Z,4.19
2023-05-19T07:44:34.034Z,4.19
2023-05-19T07:48:36.103Z,4.19
2023-05-19T07:54:40.260Z,4.18
2023-05-19T08:00:44.667Z,4.18
2023-05-19T08:04:48.437Z,4.19
2023-05-19T08:10:53.831Z,4.18
2023-05-19T08:14:58.175Z,4.18
2023-05-19T08:16:58.283Z,4.18
2023-05-19T08:21:02.113Z,4.18
2023-05-19T08:25:13.928Z,4.17
2023-05-19T08:27:06.685Z,4.18
2023-05-19T08:31:09.772Z,4.18
2023-05-19T08:37:13.432Z,4.17
2023-05-19T08:43:17.956Z,4.17
2023-05-19T08:47:20.593Z,4.17
2023-05-19T08:57:28.359Z,4.17
2023-05-19T08:59:29.316Z,4.17
2023-05-19T09:03:31.891Z,4.17
2023-05-19T09:07:35.232Z,4.17
2023-05-19T09:09:36.684Z,4.17
2023-05-19T09:13:39.690Z,4.17
2023-05-19T09:19:43.394Z,4.17
2023-05-19T09:25:46.641Z,4.17
2023-05-19T09:29:49.810Z,4.17
2023-05-19T09:35:54.782Z,4.17
2023-05-19T09:39:57.445Z,4.17
2023-05-19T09:41:59.207Z,4.16
2023-05-19T09:46:01.612Z,4.16
2023-05-19T09:50:03.999Z,4.16
2023-05-19T09:52:04.903Z,4.16
2023-05-19T09:56:07.940Z,4.16
2023-05-19T10:00:10.682Z,4.16
2023-05-19T10:02:12.068Z,4.17
2023-05-19T10:06:15.164Z,4.16
2023-05-19T10:13:02.156Z,4.16
2023-05-19T10:19:05.643Z,4.16
2023-05-19T10:23:08.154Z,4.16
2023-05-19T10:29:11.672Z,4.16
2023-05-19T10:33:14.688Z,4.16
2023-05-19T10:35:16.138Z,4.16
2023-05-19T10:39:19.144Z,4.16
2023-05-19T10:43:21.693Z,4.16
2023-05-19T10:45:23.475Z,4.16
2023-05-19T10:49:26.123Z,4.16
2023-05-19T10:55:29.666Z,4.15
2023-05-19T11:01:33.814Z,4.16
2023-05-19T11:05:36.106Z,4.15
2023-05-19T11:11:40.462Z,4.15
2023-05-19T11:15:42.543Z,4.15
2023-05-19T11:17:44.237Z,4.15
2023-05-19T11:21:47.449Z,4.15
2023-05-19T11:25:50.893Z,4.15
2023-05-19T11:27:52.538Z,4.15
2023-05-19T11:31:55.669Z,4.15
2023-05-19T11:38:00.227Z,4.15
2023-05-19T11:44:04.547Z,4.14
2023-05-19T11:48:07.348Z,4.14
2023-05-19T11:54:12.426Z,4.15
2023-05-19T11:58:15.089Z,4.14
2023-05-19T12:00:16.028Z,4.14
2023-05-19T12:04:19.283Z,4.14
2023-05-19T12:08:21.772Z,4.14
2023-05-19T12:10:23.363Z,4.14
2023-05-19T12:14:26.041Z,4.14
2023-05-19T12:20:29.814Z,4.14
2023-05-19T12:26:35.301Z,4.14
2023-05-19T12:30:38.422Z,4.14
2023-05-19T12:36:41.884Z,4.14
2023-05-19T12:42:46.289Z,4.14
2023-05-19T12:46:50.069Z,4.14
2023-05-19T12:50:52.362Z,4.14
2023-05-19T12:52:54.305Z,4.14
2023-05-19T12:56:56.851Z,4.14
2023-05-19T13:01:00.398Z,4.14
2023-05-19T13:03:02.317Z,4.14
2023-05-19T13:07:04.429Z,4.13
2023-05-19T13:09:05.640Z,4.13
2023-05-19T13:11:07.179Z,4.13
2023-05-19T13:13:08.322Z,4.14
2023-05-19T13:25:15.206Z,4.13
2023-05-19T13:29:17.352Z,4.13
2023-05-19T13:35:22.020Z,4.13
2023-05-19T13:39:24.214Z,4.13
2023-05-19T13:41:25.123Z,4.13
2023-05-19T13:45:27.878Z,4.13
2023-05-19T13:49:30.045Z,4.13
2023-05-19T13:51:31.705Z,4.13
2023-05-19T13:55:34.446Z,4.12
2023-05-19T14:01:37.914Z,4.13
2023-05-19T14:05:40.513Z,4.12
2023-05-19T14:07:42.090Z,4.12
2023-05-19T14:11:45.756Z,4.13
2023-05-19T14:17:49.361Z,4.12
2023-05-19T14:21:51.393Z,4.12
2023-05-19T14:23:52.459Z,4.12
2023-05-19T14:27:54.962Z,4.12
2023-05-19T14:31:57.240Z,4.12
2023-05-19T14:33:58.141Z,4.12
2023-05-19T14:38:00.040Z,4.12
2023-05-19T14:42:03.151Z,4.12
2023-05-19T14:44:04.347Z,4.12
2023-05-19T14:48:06.351Z,4.12
2023-05-19T14:50:07.495Z,4.12
2023-05-19T14:54:11.021Z,4.12
2023-05-19T15:00:15.858Z,4.14
2023-05-19T15:02:17.624Z,4.14
2023-05-19T15:06:19.799Z,4.15
2023-05-19T15:10:21.880Z,4.15
2023-05-19T15:16:25.769Z,4.17
2023-05-19T15:20:29.495Z,4.17
2023-05-19T15:22:29.563Z,4.18
2023-05-19T15:26:32.808Z,4.18
2023-05-19T15:30:35.100Z,4.18
2023-05-19T15:32:36.487Z,4.19
2023-05-19T15:36:38.957Z,4.19
2023-05-19T15:42:43.631Z,4.19
2023-05-19T15:48:48.691Z,4.19
2023-05-19T15:52:51.276Z,4.19
2023-05-19T15:58:55.756Z,4.19
2023-05-19T16:02:58.382Z,4.2
2023-05-19T16:04:59.189Z,4.2
2023-05-19T16:09:02.020Z,4.2
2023-05-19T16:13:04.220Z,4.2
2023-05-19T16:15:05.641Z,4.2
2023-05-19T16:19:08.831Z,4.2
2023-05-19T16:25:12.620Z,4.2
2023-05-19T16:31:18.025Z,4.2
2023-05-19T16:35:22.047Z,4.19
2023-05-19T16:41:26.579Z,4.19
2023-05-19T16:45:29.667Z,4.19
2023-05-19T16:47:31.299Z,4.19
2023-05-19T16:51:33.623Z,4.18
2023-05-19T16:52:17.345Z,4.18
2023-05-19T16:56:19.683Z,4.18
2023-05-19T17:00:21.973Z,4.19
2023-05-19T17:02:22.925Z,4.18
2023-05-19T17:06:24.882Z,4.18
2023-05-19T17:08:26.554Z,4.18
2023-05-19T17:10:27.656Z,4.18
2023-05-19T17:12:29.481Z,4.18
2023-05-19T17:18:33.653Z,4.18
2023-05-19T17:20:34.886Z,4.18
2023-05-19T17:24:38.336Z,4.18
2023-05-19T17:28:41.767Z,4.17
2023-05-19T17:34:45.016Z,4.18
2023-05-19T17:38:47.898Z,4.18
2023-05-19T17:40:48.916Z,4.17
2023-05-19T17:44:51.619Z,4.18
2023-05-19T17:50:55.320Z,4.17
2023-05-19T17:56:59.244Z,4.17
2023-05-19T18:01:01.041Z,4.17
2023-05-19T18:07:05.437Z,4.17
2023-05-19T18:11:08.748Z,4.17
2023-05-19T18:13:09.637Z,4.17
2023-05-19T18:17:12.954Z,4.17
2023-05-19T18:21:16.124Z,4.17
2023-05-19T18:23:17.042Z,4.17
2023-05-19T18:27:19.485Z,4.17
2023-05-19T18:33:25.512Z,4.17
2023-05-19T18:39:29.227Z,4.17
2023-05-19T18:43:30.175Z,4.16
2023-05-19T18:49:34.432Z,4.17
2023-05-19T18:53:37.748Z,4.17
2023-05-19T18:55:39.128Z,4.16
2023-05-19T18:59:42.183Z,4.16
2023-05-19T19:03:45.051Z,4.16
2023-05-19T19:05:46.475Z,4.16
2023-05-19T19:09:49.741Z,4.16
2023-05-19T19:15:54.706Z,4.16
2023-05-19T19:21:58.343Z,4.16
2023-05-19T19:26:01.191Z,4.16
2023-05-19T19:32:05.002Z,4.16
2023-05-19T19:36:07.432Z,4.16
2023-05-19T19:38:08.623Z,4.16
2023-05-19T19:42:11.590Z,4.16
2023-05-19T19:46:14.033Z,4.16
2023-05-19T19:48:15.504Z,4.16
2023-05-19T19:52:18.047Z,4.16
2023-05-19T19:58:22.937Z,4.16
2023-05-19T20:04:26.880Z,4.16
2023-05-19T20:08:29.569Z,4.15
2023-05-19T20:14:32.947Z,4.15
2023-05-19T20:20:37.214Z,4.15
2023-05-19T20:24:40.201Z,4.15
2023-05-19T20:30:44.155Z,4.15
2023-05-19T20:34:47.872Z,4.15
2023-05-19T20:38:50.065Z,4.15
2023-05-19T20:40:51.440Z,4.15
2023-05-19T20:44:55.044Z,4.15
2023-05-19T20:46:56.092Z,4.15
2023-05-19T20:48:57.653Z,4.15
2023-05-19T20:50:59.066Z,4.15
2023-05-19T20:57:02.866Z,4.14
2023-05-19T21:03:06.702Z,4.14
2023-05-19T21:07:09.531Z,4.14
2023-05-19T21:13:13.624Z,4.14
2023-05-19T21:17:15.746Z,4.14
2023-05-19T21:19:17.633Z,4.14
2023-05-19T21:23:20.696Z,4.14
2023-05-19T21:27:24.354Z,4.14
2023-05-19T21:29:25.896Z,4.14
2023-05-19T21:33:28.345Z,4.14
2023-05-19T21:39:32.310Z,4.14
2023-05-19T21:45:36.635Z,4.14
2023-05-19T21:49:39.821Z,4.14
2023-05-19T21:55:43.196Z,4.14
2023-05-19T21:59:55.004Z,4.13
2023-05-19T22:01:47.305Z,4.14
2023-05-19T22:05:50.232Z,4.14
2023-05-19T22:09:53.308Z,4.13
2023-05-19T22:11:54.775Z,4.13
2023-05-19T22:15:57.955Z,4.13
2023-05-19T22:22:14.056Z,4.13
2023-05-19T22:28:06.730Z,4.13
2023-05-19T22:32:09.093Z,4.13
2023-05-19T22:38:14.017Z,4.13
2023-05-19T22:42:17.001Z,4.13
2023-05-19T22:44:18.803Z,4.12
2023-05-19T22:48:20.689Z,4.12
2023-05-19T22:52:24.184Z,4.13
2023-05-19T22:54:25.622Z,4.13
2023-05-19T22:58:28.467Z,4.12
2023-05-19T23:02:32.060Z,4.12
2023-05-19T23:04:33.432Z,4.12
2023-05-19T23:08:35.806Z,4.12
2023-05-19T23:10:37.606Z,4.12
2023-05-19T23:12:39.266Z,4.12
2023-05-19T23:14:41.113Z,4.12
2023-05-19T23:20:44.538Z,4.12
2023-05-19T23:22:45.969Z,4.12
2023-05-19T23:26:49.006Z,4.12
2023-05-19T23:30:51.823Z,4.12
2023-05-19T23:36:56.258Z,4.12
2023-05-19T23:37:40.075Z,4.12
2023-05-19T23:41:42.669Z,4.12
2023-05-19T23:45:45.813Z,4.12
2023-05-19T23:47:46.731Z,4.12
2023-05-19T23:51:50.001Z,4.12
2023-05-19T23:57:54.360Z,4.11
